createdAt,value
2023-05-24T00:02:00.079Z,9.68
2023-05-24T00:04:30.558Z,16.90
2023-05-24T00:06:59.179Z,11.60
2023-05-24T00:09:28.018Z,14.27
2023-05-24T00:11:56.718Z,11.15
2023-05-24T00:14:25.917Z,11.98
2023-05-24T00:16:54.564Z,9.80
2023-05-24T00:19:23.788Z,11.32
2023-05-24T00:21:52.363Z,12.40
2023-05-24T00:24:21.383Z,17.10
2023-05-24T00:26:49.859Z,12.93
2023-05-24T00:29:18.587Z,16.05
2023-05-24T00:31:47.032Z,14.50
2023-05-24T00:34:16.006Z,14.63
2023-05-24T00:36:46.963Z,14.52
2023-05-24T00:39:17.810Z,15.35
2023-05-24T00:41:46.297Z,17.50
2023-05-24T00:44:15.208Z,14.65
2023-05-24T00:46:43.729Z,18.23
2023-05-24T00:49:12.642Z,16.17
2023-05-24T00:51:41.193Z,22.77
2023-05-24T00:54:10.106Z,14.82
2023-05-24T00:56:38.633Z,15.13
2023-05-24T00:59:07.815Z,22.73
2023-05-24T01:01:37.566Z,17.00
2023-05-24T01:04:07.805Z,15.43
2023-05-24T01:07:08.305Z,17.13
2023-05-24T01:09:58.802Z,19.23
2023-05-24T01:12:51.692Z,14.98
2023-05-24T01:15:45.078Z,15.85
2023-05-24T01:18:26.297Z,13.15
2023-05-24T01:21:39.042Z,14.80
2023-05-24T01:24:44.812Z,17.83
2023-05-24T01:27:13.729Z,14.13
2023-05-24T01:29:42.154Z,16.58
2023-05-24T01:32:11.064Z,17.27
2023-05-24T01:34:41.287Z,16.42
2023-05-24T01:37:10.954Z,18.70
2023-05-24T01:39:41.558Z,17.98
2023-05-24T01:42:25.075Z,12.77
2023-05-24T01:45:07.820Z,11.95
2023-05-24T01:47:59.101Z,16.85
2023-05-24T01:50:33.511Z,11.50
2023-05-24T01:53:08.120Z,11.82
2023-05-24T01:55:36.693Z,13.18
2023-05-24T01:58:06.125Z,11.70
2023-05-24T02:00:34.890Z,15.70
2023-05-24T02:03:03.823Z,12.98
2023-05-24T02:05:35.541Z,15.23
2023-05-24T02:08:08.056Z,14.52
2023-05-24T02:10:39.785Z,14.35
2023-05-24T02:13:08.742Z,15.03
2023-05-24T02:15:37.318Z,17.17
2023-05-24T02:18:08.552Z,14.30
2023-05-24T02:20:37.359Z,13.85
2023-05-24T02:23:07.208Z,13.07
2023-05-24T02:25:35.725Z,15.82
2023-05-24T02:28:04.470Z,19.48
2023-05-24T02:30:32.901Z,14.07
2023-05-24T02:33:02.282Z,21.88
2023-05-24T02:35:30.981Z,16.95
2023-05-24T02:38:00.042Z,16.02
2023-05-24T02:40:28.552Z,18.38
2023-05-24T02:42:57.267Z,21.10
2023-05-24T02:45:25.868Z,20.02
2023-05-24T02:47:54.609Z,25.30
2023-05-24T02:50:23.122Z,20.48
2023-05-24T02:52:51.909Z,20.33
2023-05-24T02:55:20.770Z,19.48
2023-05-24T02:57:49.539Z,21.10
2023-05-24T03:00:18.809Z,19.45
2023-05-24T03:02:51.501Z,19.77
2023-05-24T03:05:20.196Z,18.77
2023-05-24T03:07:49.297Z,22.98
2023-05-24T03:10:17.894Z,20.88
2023-05-24T03:12:47.496Z,24.70
2023-05-24T03:15:17.885Z,28.65
2023-05-24T03:17:48.403Z,30.30
2023-05-24T03:20:18.470Z,27.73
2023-05-24T03:22:47.878Z,26.85
2023-05-24T03:25:17.471Z,28.75
2023-05-24T03:27:47.051Z,31.30
2023-05-24T03:30:16.578Z,42.58
2023-05-24T03:32:55.201Z,35.08
2023-05-24T03:35:23.921Z,33.33
2023-05-24T03:37:53.618Z,30.38
2023-05-24T03:40:22.909Z,29.10
2023-05-24T03:43:00.609Z,27.50
2023-05-24T03:46:05.222Z,30.17
2023-05-24T03:48:34.221Z,27.30
2023-05-24T03:51:02.771Z,32.22
2023-05-24T03:53:32.529Z,30.05
2023-05-24T03:56:01.679Z,24.23
2023-05-24T03:58:31.553Z,30.77
2023-05-24T04:01:00.221Z,24.80
2023-05-24T04:03:29.227Z,35.70
2023-05-24T04:05:57.794Z,30.80
2023-05-24T04:08:26.782Z,25.70
2023-05-24T04:10:55.364Z,35.05
2023-05-24T04:13:24.242Z,29.25
2023-05-24T04:15:53.006Z,33.85
2023-05-24T04:18:22.699Z,28.02
2023-05-24T04:20:51.284Z,27.73
2023-05-24T04:23:22.278Z,24.38
2023-05-24T04:25:51.283Z,22.75
2023-05-24T04:28:22.448Z,24.33
2023-05-24T04:30:52.502Z,19.95
2023-05-24T04:33:22.643Z,20.88
2023-05-24T04:35:53.070Z,22.38
2023-05-24T04:38:22.787Z,19.02
2023-05-24T04:40:51.251Z,25.60
2023-05-24T04:43:20.428Z,23.05
2023-05-24T04:45:49.078Z,21.38
2023-05-24T04:48:18.548Z,21.50
2023-05-24T04:50:47.893Z,22.15
2023-05-24T04:53:17.117Z,25.80
2023-05-24T04:55:45.923Z,21.35
2023-05-24T04:58:15.419Z,22.98
2023-05-24T05:00:44.882Z,21.98
2023-05-24T05:03:14.122Z,22.02
2023-05-24T05:05:42.888Z,22.83
2023-05-24T05:08:11.915Z,20.10
2023-05-24T05:10:41.394Z,23.60
2023-05-24T05:13:10.606Z,22.45
2023-05-24T05:15:40.915Z,21.60
2023-05-24T05:18:11.782Z,24.30
2023-05-24T05:20:41.083Z,23.23
2023-05-24T05:23:10.403Z,22.52
2023-05-24T05:25:39.064Z,23.80
2023-05-24T05:28:08.073Z,20.90
2023-05-24T05:30:36.794Z,19.40
2023-05-24T05:33:06.413Z,22.92
2023-05-24T05:35:35.176Z,22.13
2023-05-24T05:38:04.284Z,21.85
2023-05-24T05:40:33.044Z,18.27
2023-05-24T05:43:02.330Z,22.73
2023-05-24T05:45:31.246Z,23.08
2023-05-24T05:48:00.292Z,20.52
2023-05-24T05:50:28.937Z,18.52
2023-05-24T05:52:58.321Z,23.45
2023-05-24T05:55:26.997Z,26.52
2023-05-24T05:57:55.995Z,21.45
2023-05-24T06:00:24.657Z,21.60
2023-05-24T06:02:53.995Z,21.77
2023-05-24T06:05:22.808Z,19.85
2023-05-24T06:07:51.801Z,21.40
2023-05-24T06:10:20.503Z,26.13
2023-05-24T06:12:49.164Z,21.00
2023-05-24T06:15:17.689Z,18.50
2023-05-24T06:17:48.232Z,22.90
2023-05-24T06:20:17.339Z,25.98
2023-05-24T06:22:46.557Z,27.48
2023-05-24T06:25:19.443Z,18.63
2023-05-24T06:27:48.264Z,20.13
2023-05-24T06:30:16.848Z,22.20
2023-05-24T06:32:45.815Z,20.63
2023-05-24T06:35:14.470Z,20.58
2023-05-24T06:37:43.828Z,27.42
2023-05-24T06:40:13.213Z,21.00
2023-05-24T06:42:42.005Z,24.00
2023-05-24T06:45:11.439Z,29.17
2023-05-24T06:47:40.301Z,26.08
2023-05-24T06:50:09.654Z,22.52
2023-05-24T06:52:38.507Z,26.23
2023-05-24T06:55:07.320Z,23.50
2023-05-24T06:57:36.477Z,30.55
2023-05-24T07:00:10.162Z,24.13
2023-05-24T07:02:40.139Z,23.08
2023-05-24T07:05:12.749Z,21.98
2023-05-24T07:07:42.716Z,18.58
2023-05-24T07:10:11.861Z,22.80
2023-05-24T07:12:41.048Z,23.02
2023-05-24T07:15:10.115Z,21.27
2023-05-24T07:17:39.244Z,18.98
2023-05-24T07:20:11.419Z,19.25
2023-05-24T07:22:41.534Z,16.80
2023-05-24T07:25:10.595Z,18.77
2023-05-24T07:27:39.972Z,20.35
2023-05-24T07:30:19.765Z,19.50
2023-05-24T07:32:58.469Z,24.90
2023-05-24T07:35:29.033Z,22.10
2023-05-24T07:37:58.083Z,24.05
2023-05-24T07:40:26.839Z,22.83
2023-05-24T07:42:56.372Z,22.63
2023-05-24T07:45:25.322Z,26.38
2023-05-24T07:47:56.708Z,27.90
2023-05-24T07:50:26.928Z,27.00
2023-05-24T07:52:57.908Z,27.02
2023-05-24T07:55:28.166Z,26.45
2023-05-24T07:57:57.256Z,27.80
2023-05-24T08:00:26.077Z,25.90
2023-05-24T08:02:55.080Z,23.55
2023-05-24T08:05:24.205Z,24.42
2023-05-24T08:07:53.802Z,16.52
2023-05-24T08:10:22.467Z,17.52
2023-05-24T08:12:54.880Z,14.95
2023-05-24T08:15:23.796Z,13.70
2023-05-24T08:17:52.806Z,17.42
2023-05-24T08:20:21.701Z,16.77
2023-05-24T08:22:50.891Z,14.18
2023-05-24T08:25:20.231Z,18.48
2023-05-24T08:27:49.533Z,19.50
2023-05-24T08:30:18.630Z,18.90
2023-05-24T08:32:47.993Z,18.50
2023-05-24T08:35:21.551Z,16.08
2023-05-24T08:37:50.998Z,13.68
2023-05-24T08:40:19.797Z,20.83
2023-05-24T08:42:49.266Z,12.70
2023-05-24T08:45:18.180Z,12.32
2023-05-24T08:47:47.223Z,13.15
2023-05-24T08:50:15.962Z,12.00
2023-05-24T08:52:45.283Z,9.77
2023-05-24T08:55:13.983Z,12.48
2023-05-24T08:57:42.988Z,11.35
2023-05-24T09:00:13.287Z,10.20
2023-05-24T09:02:43.563Z,9.50
2023-05-24T09:05:14.714Z,11.52
2023-05-24T09:07:46.828Z,11.27
2023-05-24T09:10:15.921Z,11.30
2023-05-24T09:12:52.498Z,15.82
2023-05-24T09:15:24.443Z,12.65
2023-05-24T09:17:54.715Z,14.27
2023-05-24T09:20:23.656Z,12.93
2023-05-24T09:22:53.805Z,15.13
2023-05-24T09:25:22.796Z,31.33
2023-05-24T09:27:52.965Z,15.50
2023-05-24T09:30:22.017Z,10.65
2023-05-24T09:32:59.437Z,7.72
2023-05-24T09:35:28.946Z,12.27
2023-05-24T09:38:00.252Z,11.05
2023-05-24T09:40:29.954Z,11.43
2023-05-24T09:43:11.896Z,10.82
2023-05-24T09:45:47.528Z,14.40
2023-05-24T09:48:17.629Z,25.35
2023-05-24T09:50:57.649Z,19.15
2023-05-24T09:53:27.108Z,13.70
2023-05-24T09:55:56.397Z,9.15
2023-05-24T09:58:29.395Z,12.30
2023-05-24T10:03:38.092Z,9.52
2023-05-24T10:06:11.718Z,14.35
2023-05-24T10:08:40.901Z,9.80
2023-05-24T10:11:09.866Z,14.13
2023-05-24T10:13:38.976Z,13.27
2023-05-24T10:16:07.677Z,12.93
2023-05-24T10:18:36.766Z,11.57
2023-05-24T10:21:09.902Z,13.95
2023-05-24T10:23:39.566Z,15.73
2023-05-24T10:26:11.990Z,13.10
2023-05-24T10:28:46.659Z,12.38
2023-05-24T10:31:27.181Z,9.50
2023-05-24T10:34:06.547Z,11.68
2023-05-24T10:36:37.341Z,13.98
2023-05-24T10:39:09.716Z,12.00
2023-05-24T10:41:44.724Z,12.10
2023-05-24T10:44:19.788Z,11.50
2023-05-24T10:47:08.905Z,11.13
2023-05-24T10:49:39.903Z,10.80
2023-05-24T10:52:10.055Z,11.52
2023-05-24T10:54:42.856Z,8.35
2023-05-24T10:57:15.805Z,13.68
2023-05-24T10:59:45.644Z,9.05
2023-05-24T11:02:15.226Z,9.02
2023-05-24T11:04:47.085Z,9.65
2023-05-24T11:07:16.321Z,11.55
2023-05-24T11:09:49.158Z,9.95
2023-05-24T11:12:18.764Z,11.23
2023-05-24T11:14:52.701Z,10.18
2023-05-24T11:17:23.124Z,10.18
2023-05-24T11:19:55.365Z,11.75
2023-05-24T11:22:25.888Z,9.32
2023-05-24T11:24:54.713Z,12.90
2023-05-24T11:27:23.272Z,11.40
2023-05-24T11:29:52.286Z,14.65
2023-05-24T11:32:22.085Z,11.45
2023-05-24T11:34:51.970Z,9.52
2023-05-24T11:37:28.642Z,8.07
2023-05-24T11:40:05.383Z,8.23
2023-05-24T11:42:33.951Z,14.27
2023-05-24T11:45:02.778Z,9.50
2023-05-24T11:47:31.350Z,13.50
2023-05-24T11:50:00.399Z,12.68
2023-05-24T11:52:29.219Z,13.85
2023-05-24T11:54:58.107Z,11.20
2023-05-24T11:57:40.615Z,12.40
2023-05-24T12:00:17.120Z,10.52
2023-05-24T12:02:49.261Z,12.52
2023-05-24T12:05:19.638Z,12.18
2023-05-24T12:07:51.459Z,16.17
2023-05-24T12:10:22.920Z,13.77
2023-05-24T12:12:52.128Z,13.38
2023-05-24T12:15:22.608Z,8.98
2023-05-24T12:17:51.698Z,10.93
2023-05-24T12:20:21.855Z,11.73
2023-05-24T12:22:53.920Z,9.10
2023-05-24T12:25:27.429Z,12.77
2023-05-24T12:27:56.785Z,10.10
2023-05-24T12:30:28.560Z,10.63
2023-05-24T12:32:57.944Z,10.48
2023-05-24T12:35:26.946Z,9.15
2023-05-24T12:38:01.703Z,9.00
2023-05-24T12:40:33.776Z,8.10
2023-05-24T12:43:04.090Z,10.70
2023-05-24T12:45:33.255Z,7.00
2023-05-24T12:48:03.219Z,10.40
2023-05-24T12:50:32.870Z,7.05
2023-05-24T12:53:01.488Z,16.02
2023-05-24T12:55:30.813Z,10.32
2023-05-24T12:58:01.940Z,11.68
2023-05-24T13:00:31.755Z,9.32
2023-05-24T13:03:00.439Z,9.35
2023-05-24T13:05:32.348Z,10.18
2023-05-24T13:10:35.322Z,8.85
2023-05-24T13:13:05.516Z,12.45
2023-05-24T13:15:35.086Z,11.50
2023-05-24T13:18:05.645Z,7.88
2023-05-24T13:20:34.950Z,8.23
2023-05-24T13:23:03.666Z,8.45
2023-05-24T13:25:34.069Z,8.90
2023-05-24T13:28:02.801Z,12.70
2023-05-24T13:30:34.241Z,11.65
2023-05-24T13:33:02.952Z,12.23
2023-05-24T13:35:33.453Z,9.07
2023-05-24T13:38:02.113Z,7.95
2023-05-24T13:40:31.027Z,11.27
2023-05-24T13:42:59.957Z,9.60
2023-05-24T13:45:30.562Z,6.88
2023-05-24T13:48:04.333Z,7.35
2023-05-24T13:50:36.810Z,10.10
2023-05-24T13:53:06.128Z,7.85
2023-05-24T13:55:36.304Z,14.02
2023-05-24T13:58:05.417Z,15.15
2023-05-24T14:00:36.368Z,9.00
2023-05-24T14:03:06.398Z,15.20
2023-05-24T14:05:35.948Z,10.52
2023-05-24T14:08:07.021Z,8.48
2023-05-24T14:10:37.306Z,8.20
2023-05-24T14:15:39.095Z,9.70
2023-05-24T14:18:08.860Z,11.77
2023-05-24T14:20:38.766Z,8.65
2023-05-24T14:23:08.251Z,8.40
2023-05-24T14:25:38.044Z,9.00
2023-05-24T14:28:08.776Z,9.13
2023-05-24T14:30:38.285Z,8.23
2023-05-24T14:33:08.622Z,8.50
2023-05-24T14:35:41.457Z,10.20
2023-05-24T14:38:11.636Z,11.38
2023-05-24T14:40:41.146Z,7.78
2023-05-24T14:43:11.055Z,10.30
2023-05-24T14:45:42.279Z,10.35
2023-05-24T14:48:12.538Z,9.63
2023-05-24T14:50:42.185Z,9.93
2023-05-24T14:53:13.973Z,8.43
2023-05-24T14:55:44.044Z,10.53
2023-05-24T14:58:13.365Z,8.63
2023-05-24T15:00:43.284Z,6.85
2023-05-24T15:03:14.755Z,8.38
2023-05-24T15:05:44.131Z,10.60
2023-05-24T15:08:12.971Z,7.13
2023-05-24T15:10:45.182Z,6.10
2023-05-24T15:13:14.222Z,8.10
2023-05-24T15:15:43.538Z,8.50
2023-05-24T15:18:12.287Z,9.85
2023-05-24T15:20:41.720Z,6.13
2023-05-24T15:23:11.087Z,8.80
2023-05-24T15:25:41.205Z,8.45
2023-05-24T15:28:13.158Z,8.68
2023-05-24T15:30:44.843Z,7.07
2023-05-24T15:33:14.188Z,8.52
2023-05-24T15:35:43.474Z,13.23
2023-05-24T15:38:12.263Z,10.13
2023-05-24T15:40:42.911Z,8.43
2023-05-24T15:43:11.852Z,7.10
2023-05-24T15:45:40.812Z,7.60
2023-05-24T15:48:10.644Z,7.75
2023-05-24T15:51:03.761Z,9.20
2023-05-24T15:53:28.963Z,5.93
2023-05-24T15:55:57.933Z,5.20
2023-05-24T15:58:26.910Z,9.40
2023-05-24T16:00:56.058Z,9.65
2023-05-24T16:03:25.245Z,8.25
2023-05-24T16:05:54.430Z,9.30
2023-05-24T16:08:28.138Z,9.57
2023-05-24T16:10:57.954Z,8.57
2023-05-24T16:13:27.127Z,13.82
2023-05-24T16:15:56.668Z,10.93
2023-05-24T16:18:27.288Z,9.30
2023-05-24T16:20:57.065Z,9.98
2023-05-24T16:23:25.993Z,7.93
2023-05-24T16:25:55.306Z,12.77
2023-05-24T16:28:25.150Z,9.48
2023-05-24T16:30:56.475Z,7.85
2023-05-24T16:33:25.614Z,9.88
2023-05-24T16:36:00.500Z,11.48
2023-05-24T16:38:32.869Z,7.72
2023-05-24T16:41:02.308Z,9.10
2023-05-24T16:43:34.559Z,12.18
2023-05-24T16:46:05.064Z,6.20
2023-05-24T16:48:34.251Z,7.38
2023-05-24T16:51:05.002Z,7.70
2023-05-24T16:53:34.074Z,10.10
2023-05-24T16:56:03.510Z,12.23
2023-05-24T16:58:32.170Z,11.50
2023-05-24T17:01:03.188Z,9.25
2023-05-24T17:03:34.689Z,13.68
2023-05-24T17:06:07.171Z,7.88
2023-05-24T17:08:36.752Z,8.95
2023-05-24T17:11:06.610Z,11.93
2023-05-24T17:13:36.754Z,12.00
2023-05-24T17:16:06.680Z,11.38
2023-05-24T17:18:36.204Z,16.33
2023-05-24T17:21:06.078Z,10.98
2023-05-24T17:23:37.720Z,10.30
2023-05-24T17:26:14.943Z,13.10
2023-05-24T17:28:46.637Z,10.48
2023-05-24T17:33:46.789Z,12.13
2023-05-24T17:36:19.039Z,14.90
2023-05-24T17:38:47.839Z,6.97
2023-05-24T17:41:18.385Z,10.68
2023-05-24T17:43:48.194Z,11.82
2023-05-24T17:46:18.100Z,12.88
2023-05-24T17:48:48.138Z,15.40
2023-05-24T17:51:21.087Z,12.35
2023-05-24T17:53:51.614Z,11.40
2023-05-24T17:56:23.479Z,10.40
2023-05-24T17:58:52.558Z,11.40
2023-05-24T18:01:23.927Z,8.95
2023-05-24T18:03:53.096Z,9.38
2023-05-24T18:06:23.537Z,9.77
2023-05-24T18:08:54.093Z,11.23
2023-05-24T18:11:24.739Z,17.92
2023-05-24T18:13:54.809Z,9.13
2023-05-24T18:16:27.097Z,10.90
2023-05-24T18:18:56.430Z,6.43
2023-05-24T18:21:28.876Z,10.05
2023-05-24T18:23:59.364Z,14.50
2023-05-24T18:26:28.978Z,10.05
2023-05-24T18:28:59.305Z,12.45
2023-05-24T18:31:28.258Z,10.80
2023-05-24T18:33:57.857Z,7.53
2023-05-24T18:36:29.139Z,7.28
2023-05-24T18:38:58.542Z,12.02
2023-05-24T18:41:32.566Z,12.35
2023-05-24T18:44:07.869Z,7.07
2023-05-24T18:46:39.503Z,10.55
2023-05-24T18:49:11.245Z,6.05
2023-05-24T18:51:44.103Z,7.10
2023-05-24T18:54:14.673Z,7.03
2023-05-24T18:56:47.330Z,6.30
2023-05-24T18:59:18.712Z,7.80
2023-05-24T19:01:49.858Z,6.22
2023-05-24T19:04:18.720Z,6.72
2023-05-24T19:06:54.598Z,11.15
2023-05-24T19:09:25.095Z,7.07
2023-05-24T19:14:31.331Z,7.15
2023-05-24T19:17:02.400Z,5.28
2023-05-24T19:19:33.882Z,5.18
2023-05-24T19:22:04.007Z,7.07
2023-05-24T19:24:35.216Z,6.43
2023-05-24T19:27:04.958Z,7.45
2023-05-24T19:29:40.113Z,5.70
2023-05-24T19:32:11.922Z,6.00
2023-05-24T19:34:45.421Z,7.85
2023-05-24T19:37:21.097Z,8.32
2023-05-24T19:39:51.715Z,6.28
2023-05-24T19:42:23.181Z,4.82
2023-05-24T19:44:54.234Z,6.53
2023-05-24T19:47:26.015Z,5.80
2023-05-24T19:50:00.283Z,5.45
2023-05-24T19:52:38.838Z,8.05
2023-05-24T19:55:28.012Z,9.57
2023-05-24T19:58:02.538Z,7.28
2023-05-24T20:00:36.081Z,8.02
2023-05-24T20:06:24.792Z,12.40
2023-05-24T21:03:57.785Z,7.90
2023-05-24T21:06:50.426Z,9.43
2023-05-24T21:09:26.078Z,9.98
2023-05-24T21:12:45.557Z,9.45
2023-05-24T21:15:33.185Z,11.20
2023-05-24T21:18:05.656Z,6.47
2023-05-24T21:20:51.535Z,15.02
2023-05-24T21:24:04.124Z,11.60
2023-05-24T21:26:32.945Z,8.15
2023-05-24T21:29:22.356Z,9.05
2023-05-24T21:32:12.085Z,8.25
2023-05-24T21:34:46.177Z,8.18
2023-05-24T21:37:40.544Z,12.75
2023-05-24T21:40:37.155Z,8.95
2023-05-24T21:43:12.563Z,10.65
2023-05-24T21:45:42.354Z,12.50
2023-05-24T21:48:21.685Z,9.90
2023-05-24T21:50:51.734Z,9.10
2023-05-24T21:53:20.525Z,13.38
2023-05-24T21:55:55.308Z,11.30
2023-05-24T21:58:38.868Z,7.70
2023-05-24T22:01:08.986Z,9.30
2023-05-24T22:03:44.554Z,13.25
2023-05-24T22:06:44.421Z,10.57
2023-05-24T22:09:25.594Z,12.48
2023-05-24T22:11:56.023Z,17.00
2023-05-24T22:14:27.683Z,12.75
2023-05-24T22:17:14.439Z,10.00
2023-05-24T22:20:01.530Z,14.73
2023-05-24T22:26:17.251Z,11.13
2023-05-24T22:28:52.669Z,13.25
2023-05-24T22:31:25.739Z,14.45
2023-05-24T22:33:59.273Z,11.07
2023-05-24T22:36:39.755Z,10.82
2023-05-24T22:39:14.712Z,16.25
2023-05-24T22:41:45.177Z,9.43
2023-05-24T22:44:17.576Z,13.18
2023-05-24T22:46:54.831Z,8.27
2023-05-24T22:49:36.705Z,13.80
2023-05-24T22:52:07.304Z,12.90
2023-05-24T22:54:49.596Z,14.73
2023-05-24T22:57:23.800Z,10.20
2023-05-24T23:00:08.566Z,11.40
2023-05-24T23:03:02.458Z,15.23
2023-05-24T23:05:41.319Z,8.43
2023-05-24T23:08:15.492Z,9.88
2023-05-24T23:10:49.362Z,9.20
2023-05-24T23:13:53.365Z,10.70
2023-05-24T23:16:25.939Z,11.23
2023-05-24T23:19:21.266Z,13.48
2023-05-24T23:22:11.426Z,9.23
2023-05-24T23:24:42.829Z,7.28
2023-05-24T23:27:12.762Z,7.30
2023-05-24T23:29:42.509Z,10.32
2023-05-24T23:32:19.259Z,9.05
2023-05-24T23:37:39.744Z,7.85
2023-05-24T23:40:34.341Z,5.88
2023-05-24T23:43:07.443Z,9.98
2023-05-24T23:48:30.201Z,7.40
2023-05-24T23:58:56.079Z,7.10
